Time;durP1;ratioP1;P1;durP2;ratioP2;P2;SDS_P1;SDS_P2;PMS_P1;PMS_P2;Temp;Humidity;BMP_temperature;BMP_pressure;BME280_temperature;BME280_humidity;BME280_pressure;Samples;Min_cycle;Max_cycle;Signal;HPM_P1;HPM_P2
2022/11/05 00:10:07;;;;;;;837.77;760.60;;;6.50;99.90;;;;;;4985111;28;20462;-85
2022/11/05 00:18:04;;;;;;;838.00;760.23;;;6.50;99.90;;;;;;4985029;28;20447;-85
2022/11/05 00:20:30;;;;;;;827.17;749.23;;;6.60;99.90;;;;;;4983052;28;20462;-85
2022/11/05 00:25:54;;;;;;;812.17;734.40;;;6.60;99.90;;;;;;4983763;28;20542;-85
2022/11/05 00:28:21;;;;;;;809.53;731.00;;;6.60;99.90;;;;;;4984723;28;20467;-85
2022/11/05 00:30:49;;;;;;;815.23;735.83;;;6.60;99.90;;;;;;4983792;28;20842;-85
2022/11/05 00:33:16;;;;;;;798.37;721.30;;;6.70;99.90;;;;;;4983410;28;20844;-85
2022/11/05 00:35:42;;;;;;;821.60;743.87;;;6.70;99.90;;;;;;4982834;28;20456;-85
2022/11/05 00:38:09;;;;;;;804.30;726.27;;;6.80;99.90;;;;;;4982971;28;20466;-84
2022/11/05 00:40:36;;;;;;;823.43;745.87;;;6.70;99.90;;;;;;4983986;28;20463;-85
2022/11/05 00:45:49;;;;;;;812.50;736.10;;;6.90;99.90;;;;;;4982828;28;20570;-85
2022/11/05 00:50:56;;;;;;;813.67;737.53;;;6.90;99.90;;;;;;4940623;28;20488;-85
2022/11/05 00:53:23;;;;;;;803.23;728.03;;;7.00;99.90;;;;;;4983514;28;20467;-85
2022/11/05 00:55:50;;;;;;;803.07;728.57;;;7.00;99.90;;;;;;4982253;28;20443;-85
2022/11/05 00:58:18;;;;;;;786.87;712.67;;;7.10;99.90;;;;;;4982983;28;20455;-84
2022/11/05 01:00:49;;;;;;;797.23;722.90;;;7.00;99.90;;;;;;4982719;28;20455;-85
2022/11/05 01:03:20;;;;;;;791.60;718.83;;;7.10;99.90;;;;;;4983494;28;20467;-85
2022/11/05 01:05:48;;;;;;;795.83;722.93;;;7.00;99.90;;;;;;4983645;28;20483;-85
2022/11/05 01:08:17;;;;;;;791.77;718.90;;;7.00;99.90;;;;;;4984610;28;20482;-82
2022/11/05 01:10:46;;;;;;;799.87;726.87;;;6.80;99.90;;;;;;4983643;28;20455;-82
2022/11/05 01:13:14;;;;;;;814.57;741.07;;;6.80;99.90;;;;;;4985195;28;20558;-82
2022/11/05 01:15:41;;;;;;;801.07;729.10;;;6.70;99.90;;;;;;4984547;28;20954;-83
2022/11/05 01:18:08;;;;;;;801.73;730.50;;;6.70;99.90;;;;;;4983978;28;20832;-82
2022/11/05 01:20:36;;;;;;;811.17;738.97;;;6.50;99.90;;;;;;4983455;28;20960;-82
2022/11/05 01:23:02;;;;;;;813.13;740.80;;;6.50;99.90;;;;;;4984317;28;20465;-83
2022/11/05 01:25:29;;;;;;;796.83;724.40;;;6.40;99.90;;;;;;4983597;28;20479;-82
2022/11/05 01:27:56;;;;;;;794.83;722.10;;;6.40;99.90;;;;;;4984027;28;20468;-83
2022/11/05 01:30:23;;;;;;;798.20;726.00;;;6.50;99.90;;;;;;4983269;28;20466;-84
2022/11/05 01:32:50;;;;;;;803.90;731.80;;;6.50;99.90;;;;;;4982079;28;20463;-84
2022/11/05 01:35:17;;;;;;;798.30;727.27;;;6.40;99.90;;;;;;4981011;28;20451;-85
2022/11/05 01:37:46;;;;;;;807.37;736.07;;;6.40;99.90;;;;;;4981301;28;20462;-85
2022/11/05 01:40:16;;;;;;;821.20;749.20;;;6.30;99.90;;;;;;4981569;28;20458;-83
2022/11/05 01:42:43;;;;;;;833.53;760.13;;;6.20;99.90;;;;;;4982299;28;20459;-85
2022/11/05 01:45:16;;;;;;;808.73;736.23;;;6.10;99.90;;;;;;4980340;28;20486;-85
2022/11/05 01:48:00;;;;;;;822.83;749.33;;;6.00;99.90;;;;;;4981553;28;20459;-85
2022/11/05 01:50:41;;;;;;;825.93;751.77;;;5.80;99.90;;;;;;4981827;28;20458;-85
2022/11/05 01:53:15;;;;;;;843.30;767.57;;;5.60;99.90;;;;;;4980741;28;20486;-85
2022/11/05 01:55:45;;;;;;;853.73;777.07;;;5.40;99.90;;;;;;4981580;28;20466;-84
2022/11/05 01:58:17;;;;;;;844.83;767.93;;;5.30;99.90;;;;;;4979404;28;20630;-85
2022/11/05 02:00:44;;;;;;;842.40;764.60;;;5.30;99.90;;;;;;4980361;28;20479;-85
2022/11/05 02:03:12;;;;;;;822.73;745.30;;;5.20;99.90;;;;;;4980834;28;20570;-85
2022/11/05 02:05:40;;;;;;;806.00;728.10;;;5.20;99.90;;;;;;4980746;28;20479;-85
2022/11/05 02:08:13;;;;;;;808.67;730.50;;;5.30;99.90;;;;;;4980577;28;20890;-85
2022/11/05 02:10:42;;;;;;;789.00;711.97;;;5.40;99.90;;;;;;4980308;28;20465;-85
2022/11/05 02:13:09;;;;;;;793.23;716.60;;;5.60;99.90;;;;;;4982214;28;20458;-85
2022/11/05 02:15:49;;;;;;;787.33;709.83;;;5.70;99.90;;;;;;4981289;28;20447;-85
2022/11/05 02:18:23;;;;;;;796.40;718.90;;;5.60;99.90;;;;;;4980861;28;20466;-84
2022/11/05 02:20:57;;;;;;;811.17;733.90;;;5.70;99.90;;;;;;4981939;28;20462;-85
2022/11/05 02:23:52;;;;;;;808.17;731.53;;;5.60;99.90;;;;;;4981187;28;20482;-85
2022/11/05 02:26:48;;;;;;;787.80;711.37;;;5.60;99.90;;;;;;4980668;28;20483;-84
2022/11/05 02:29:41;;;;;;;798.73;723.00;;;5.60;99.90;;;;;;4980926;28;20459;-85
2022/11/05 02:32:17;;;;;;;805.60;728.93;;;5.60;99.90;;;;;;4980753;28;20459;-85
2022/11/05 02:34:51;;;;;;;797.37;720.50;;;5.50;99.90;;;;;;4981707;28;20498;-85
2022/11/05 02:37:25;;;;;;;795.50;718.47;;;5.60;99.90;;;;;;4981109;28;20463;-85
2022/11/05 02:40:00;;;;;;;791.63;714.73;;;5.60;99.90;;;;;;4981298;28;20477;-84
2022/11/05 02:42:33;;;;;;;782.33;706.63;;;5.70;99.90;;;;;;4981819;28;20454;-85
2022/11/05 02:45:08;;;;;;;764.27;689.20;;;5.90;99.90;;;;;;4980786;28;20486;-85
2022/11/05 02:47:44;;;;;;;754.97;680.90;;;6.40;99.90;;;;;;4981488;28;20961;-85
2022/11/05 02:50:23;;;;;;;754.73;680.97;;;6.80;99.90;;;;;;4980660;28;20461;-84
2022/11/05 02:52:59;;;;;;;763.00;690.27;;;6.90;99.90;;;;;;4980989;28;20454;-85
2022/11/05 02:55:30;;;;;;;759.33;690.43;;;7.00;99.90;;;;;;4981812;28;20454;-85
2022/11/05 02:57:58;;;;;;;769.97;702.87;;;7.10;99.90;;;;;;4980916;28;20459;-85
2022/11/05 03:00:50;;;;;;;800.23;736.33;;;7.00;99.90;;;;;;4981211;28;20455;-84
2022/11/05 03:03:26;;;;;;;794.90;730.80;;;7.00;99.90;;;;;;4976404;28;20494;-85
2022/11/05 03:06:16;;;;;;;784.43;722.13;;;7.00;99.90;;;;;;4981102;28;20475;-84
2022/11/05 03:09:00;;;;;;;793.63;731.40;;;6.90;99.90;;;;;;4982947;28;20461;-85
2022/11/05 03:11:30;;;;;;;799.67;739.50;;;6.80;99.90;;;;;;4984645;28;20545;-84
2022/11/05 03:14:02;;;;;;;795.90;736.20;;;6.70;99.90;;;;;;4984553;28;20474;-84
2022/11/05 03:16:37;;;;;;;812.67;752.97;;;6.40;99.90;;;;;;4985079;28;20454;-85
2022/11/05 03:19:12;;;;;;;836.97;775.63;;;6.30;99.90;;;;;;4983433;28;20553;-84
2022/11/05 03:21:46;;;;;;;827.07;764.70;;;6.20;99.90;;;;;;4983645;28;20461;-85
2022/11/05 03:24:17;;;;;;;832.27;768.80;;;6.10;99.90;;;;;;4984007;28;20861;-85
2022/11/05 03:26:51;;;;;;;816.40;752.10;;;6.00;99.90;;;;;;4984125;28;20479;-84
2022/11/05 03:29:22;;;;;;;851.30;784.40;;;5.90;99.90;;;;;;4984935;28;20988;-85
2022/11/05 03:31:51;;;;;;;860.20;791.27;;;5.80;99.90;;;;;;4984259;28;20458;-85
2022/11/05 03:34:26;;;;;;;852.53;781.77;;;5.70;99.90;;;;;;4984899;28;20478;-84
2022/11/05 03:36:56;;;;;;;829.20;757.63;;;5.60;99.90;;;;;;4984651;28;20492;-85
2022/11/05 03:39:29;;;;;;;834.93;759.83;;;5.60;99.90;;;;;;4983793;28;20455;-85
2022/11/05 03:41:58;;;;;;;820.63;745.27;;;5.60;99.90;;;;;;4983778;28;20459;-85
2022/11/05 03:44:27;;;;;;;824.17;746.93;;;5.60;99.90;;;;;;4984249;28;20486;-85
2022/11/05 03:47:01;;;;;;;819.70;742.20;;;5.60;99.90;;;;;;4984670;28;20482;-85
2022/11/05 03:49:34;;;;;;;816.47;738.77;;;5.60;99.90;;;;;;4984559;28;20521;-85
2022/11/05 03:52:06;;;;;;;817.40;739.07;;;5.70;99.90;;;;;;4982850;28;20462;-84
2022/11/05 03:54:34;;;;;;;804.80;726.53;;;5.60;99.90;;;;;;4984017;28;20487;-84
2022/11/05 03:57:06;;;;;;;811.10;731.90;;;5.60;99.90;;;;;;4984474;28;20447;-85
2022/11/05 03:59:39;;;;;;;816.43;736.87;;;5.50;99.90;;;;;;4985253;28;20463;-85
2022/11/05 04:02:06;;;;;;;812.87;733.10;;;5.50;99.90;;;;;;4983589;28;20477;-85
2022/11/05 04:04:34;;;;;;;813.47;733.50;;;5.40;99.90;;;;;;4984845;28;20474;-85
2022/11/05 04:15:13;;;;;;;812.87;732.17;;;5.40;99.90;;;;;;4984607;28;20474;-84
2022/11/05 04:17:39;;;;;;;812.23;730.83;;;5.30;99.90;;;;;;4983837;28;20454;-84
2022/11/05 04:25:43;;;;;;;813.00;731.53;;;5.60;99.90;;;;;;4983853;28;20478;-84
2022/11/05 04:28:10;;;;;;;809.63;727.63;;;5.60;99.90;;;;;;4983454;28;20462;-84
2022/11/05 04:30:36;;;;;;;816.47;734.20;;;5.60;99.90;;;;;;4983837;28;20455;-84
2022/11/05 04:33:05;;;;;;;814.13;731.70;;;5.60;99.90;;;;;;4984345;28;20459;-84
2022/11/05 04:35:36;;;;;;;811.23;729.73;;;5.60;99.90;;;;;;4983347;28;20192;-83
2022/11/05 04:38:04;;;;;;;822.47;739.50;;;5.70;99.90;;;;;;4983598;28;20469;-84
2022/11/05 04:40:31;;;;;;;823.00;740.10;;;5.60;99.90;;;;;;4983496;28;20459;-84
2022/11/05 04:42:58;;;;;;;840.87;757.87;;;5.60;99.90;;;;;;4984831;28;20459;-84
2022/11/05 04:45:26;;;;;;;838.07;754.60;;;5.50;99.90;;;;;;4984119;28;20479;-86
2022/11/05 04:47:53;;;;;;;833.57;750.10;;;5.30;99.90;;;;;;4983915;28;20450;-87
2022/11/05 04:50:20;;;;;;;839.67;756.00;;;5.20;99.90;;;;;;4983901;28;20469;-84
2022/11/05 04:52:48;;;;;;;831.93;748.70;;;5.30;99.90;;;;;;4982215;28;20484;-86
2022/11/05 04:55:15;;;;;;;823.73;741.07;;;5.30;99.90;;;;;;4982816;28;20471;-87
2022/11/05 04:57:41;;;;;;;831.97;748.07;;;5.10;99.90;;;;;;4982938;28;20455;-86
2022/11/05 05:00:09;;;;;;;830.73;746.93;;;5.10;99.90;;;;;;4983342;28;20975;-86
2022/11/05 05:02:36;;;;;;;826.00;741.73;;;5.10;99.90;;;;;;4982567;28;20458;-85
2022/11/05 05:05:05;;;;;;;819.87;736.47;;;5.00;99.90;;;;;;4982812;28;21028;-87
2022/11/05 05:07:32;;;;;;;814.10;729.30;;;5.00;99.90;;;;;;4983496;28;20490;-87
2022/11/05 05:10:01;;;;;;;813.23;727.43;;;5.00;99.90;;;;;;4984411;28;20455;-86
2022/11/05 05:12:28;;;;;;;819.20;733.70;;;5.00;99.90;;;;;;4983622;28;20463;-87
2022/11/05 05:14:55;;;;;;;796.67;711.93;;;5.00;99.90;;;;;;4982617;28;20483;-86
2022/11/05 05:17:22;;;;;;;807.93;723.43;;;5.10;99.90;;;;;;4983129;28;20489;-86
2022/11/05 05:22:32;;;;;;;830.17;745.50;;;5.20;99.90;;;;;;4982589;28;20443;-86
2022/11/05 05:25:00;;;;;;;817.20;732.93;;;5.20;99.90;;;;;;4983627;28;20482;-87
2022/11/05 05:27:29;;;;;;;809.93;725.63;;;5.20;99.90;;;;;;4983913;28;20479;-86
2022/11/05 05:29:56;;;;;;;820.80;736.63;;;5.20;99.90;;;;;;4982618;28;20473;-87
2022/11/05 05:32:23;;;;;;;825.60;739.97;;;5.10;99.90;;;;;;4981522;28;20455;-86
2022/11/05 05:34:50;;;;;;;821.20;735.10;;;5.10;99.90;;;;;;4982673;28;20574;-86
2022/11/05 05:37:17;;;;;;;818.93;733.43;;;5.10;99.90;;;;;;4983027;28;20458;-87
2022/11/05 05:39:44;;;;;;;821.27;736.27;;;5.00;99.90;;;;;;4983271;28;20457;-87
2022/11/05 05:42:13;;;;;;;816.83;732.53;;;5.00;99.90;;;;;;4983182;28;20454;-86
2022/11/05 05:44:40;;;;;;;793.47;709.17;;;4.90;99.90;;;;;;4982278;28;20482;-86
2022/11/05 05:47:07;;;;;;;799.67;714.30;;;4.90;99.90;;;;;;4983487;28;20483;-85
2022/11/05 05:49:33;;;;;;;803.63;719.77;;;4.80;99.90;;;;;;4981693;28;20455;-86
2022/11/05 05:52:00;;;;;;;797.70;713.50;;;4.80;99.90;;;;;;4983155;28;20450;-86
2022/11/05 05:54:27;;;;;;;803.57;719.00;;;4.80;99.90;;;;;;4980788;28;20482;-87
2022/11/05 05:56:53;;;;;;;795.97;711.37;;;4.80;99.90;;;;;;4981215;28;20977;-85
2022/11/05 05:59:22;;;;;;;818.00;733.70;;;4.80;99.90;;;;;;4981805;28;20458;-85
2022/11/05 06:01:48;;;;;;;823.20;740.60;;;4.80;99.90;;;;;;4980771;28;20527;-87
2022/11/05 06:04:15;;;;;;;819.13;736.43;;;4.70;99.90;;;;;;4985002;28;20483;-86
2022/11/05 06:06:45;;;;;;;791.00;708.20;;;4.60;99.90;;;;;;4984742;28;20486;-86
2022/11/05 06:09:12;;;;;;;795.03;709.80;;;4.60;99.90;;;;;;4984320;28;20459;-86
2022/11/05 06:11:39;;;;;;;805.23;722.23;;;4.50;99.90;;;;;;4982881;28;20471;-86
2022/11/05 06:14:06;;;;;;;832.13;747.03;;;4.50;99.90;;;;;;4985287;28;20479;-86
2022/11/05 06:16:35;;;;;;;810.03;723.90;;;4.50;99.90;;;;;;4981394;28;20451;-86
2022/11/05 06:19:01;;;;;;;812.97;728.20;;;4.60;99.90;;;;;;4980972;28;20459;-86
2022/11/05 06:21:28;;;;;;;833.73;749.60;;;4.60;99.90;;;;;;4980482;28;20459;-86
2022/11/05 06:23:55;;;;;;;830.13;745.83;;;4.60;99.90;;;;;;4981331;28;20478;-86
2022/11/05 06:26:22;;;;;;;824.90;740.80;;;4.70;99.90;;;;;;4981475;28;20475;-86
2022/11/05 06:28:48;;;;;;;791.03;707.60;;;4.80;99.90;;;;;;4982124;28;20465;-86
2022/11/05 06:31:16;;;;;;;801.20;717.50;;;4.80;99.90;;;;;;4980069;28;20457;-85
2022/11/05 06:33:46;;;;;;;795.27;710.73;;;4.80;99.90;;;;;;4979635;28;20483;-87
2022/11/05 06:36:14;;;;;;;803.30;717.50;;;4.70;99.90;;;;;;4979970;28;21041;-86
2022/11/05 06:38:41;;;;;;;805.17;718.93;;;4.70;99.90;;;;;;4978951;28;20459;-85
2022/11/05 06:41:08;;;;;;;813.33;728.00;;;4.70;99.90;;;;;;4979947;28;20459;-86
2022/11/05 06:43:35;;;;;;;811.67;726.43;;;4.80;99.90;;;;;;4982357;28;20497;-85
2022/11/05 06:46:02;;;;;;;823.00;739.80;;;4.80;99.90;;;;;;4984669;28;20478;-84
2022/11/05 06:48:29;;;;;;;824.53;740.03;;;4.80;99.90;;;;;;4983398;28;20459;-85
2022/11/05 06:50:58;;;;;;;822.47;738.00;;;4.90;99.90;;;;;;4983117;28;20450;-85
2022/11/05 06:53:25;;;;;;;815.90;732.30;;;5.00;99.90;;;;;;4982667;28;20483;-85
2022/11/05 06:55:51;;;;;;;814.83;731.77;;;5.00;99.90;;;;;;4982861;28;20811;-84
2022/11/05 06:58:18;;;;;;;826.70;741.90;;;5.00;99.90;;;;;;4988363;28;20969;-85
2022/11/05 07:00:45;;;;;;;823.23;739.83;;;5.00;99.90;;;;;;4991749;28;20450;-85
2022/11/05 07:03:12;;;;;;;829.40;745.20;;;5.00;99.90;;;;;;4994572;28;20451;-85
2022/11/05 07:05:43;;;;;;;829.23;745.57;;;4.90;99.90;;;;;;4982646;28;20463;-86
2022/11/05 07:08:11;;;;;;;831.67;746.70;;;5.00;99.90;;;;;;4982991;28;20455;-86
2022/11/05 07:10:38;;;;;;;833.77;749.00;;;5.10;99.90;;;;;;4982927;28;20459;-86
2022/11/05 07:13:04;;;;;;;837.97;752.23;;;5.10;99.90;;;;;;4983738;28;20501;-85
2022/11/05 07:15:31;;;;;;;844.63;759.40;;;5.20;99.90;;;;;;4982698;28;20451;-85
2022/11/05 07:17:58;;;;;;;837.30;752.20;;;5.30;99.90;;;;;;4982161;28;20455;-85
2022/11/05 07:20:26;;;;;;;834.67;749.80;;;5.20;99.90;;;;;;4982478;28;20465;-84
2022/11/05 07:23:00;;;;;;;836.77;751.27;;;5.20;99.90;;;;;;4982703;28;20447;-84
2022/11/05 07:25:29;;;;;;;833.60;749.60;;;5.20;99.90;;;;;;4983173;28;20505;-85
2022/11/05 07:27:56;;;;;;;829.10;743.73;;;5.30;99.90;;;;;;4983712;28;20488;-86
2022/11/05 07:30:23;;;;;;;831.20;747.57;;;5.40;99.90;;;;;;4983058;28;20455;-86
2022/11/05 07:32:50;;;;;;;832.13;746.30;;;5.40;99.90;;;;;;4983352;28;20459;-86
2022/11/05 07:35:17;;;;;;;826.50;742.40;;;5.50;99.90;;;;;;4981767;28;20890;-85
2022/11/05 07:37:44;;;;;;;817.47;733.00;;;5.60;99.90;;;;;;4982029;28;20477;-83
2022/11/05 07:40:12;;;;;;;829.97;747.27;;;5.70;99.90;;;;;;4982002;28;20549;-84
2022/11/05 07:42:42;;;;;;;827.63;744.93;;;5.80;99.90;;;;;;4980730;28;20451;-84
2022/11/05 07:45:10;;;;;;;824.47;739.30;;;5.80;99.90;;;;;;4982071;28;20838;-85
2022/11/05 07:47:37;;;;;;;813.00;729.93;;;5.90;99.90;;;;;;4984453;28;20486;-85
2022/11/05 07:50:04;;;;;;;818.23;734.73;;;5.80;99.90;;;;;;4984909;28;20691;-86
2022/11/05 07:52:31;;;;;;;824.87;739.40;;;6.00;99.90;;;;;;4983802;28;20522;-85
2022/11/05 07:54:58;;;;;;;829.00;744.10;;;5.90;99.90;;;;;;4982605;28;20475;-85
2022/11/05 07:57:25;;;;;;;835.53;750.63;;;6.00;99.90;;;;;;4982847;28;20459;-85
2022/11/05 07:59:53;;;;;;;836.83;750.57;;;5.90;99.90;;;;;;4983889;28;20455;-85
2022/11/05 08:02:20;;;;;;;840.83;756.93;;;6.00;99.90;;;;;;4984265;28;20455;-86
2022/11/05 08:04:47;;;;;;;830.37;746.70;;;6.00;99.90;;;;;;4985075;28;20506;-85
2022/11/05 08:07:13;;;;;;;823.13;739.13;;;6.20;99.90;;;;;;4985837;28;20489;-85
2022/11/05 08:09:40;;;;;;;838.57;754.10;;;6.20;99.90;;;;;;4984490;28;20459;-85
2022/11/05 08:12:08;;;;;;;825.47;743.17;;;6.30;99.90;;;;;;4980719;28;20459;-83
2022/11/05 08:14:35;;;;;;;830.03;747.50;;;6.40;99.90;;;;;;4983315;28;20516;-83
2022/11/05 08:17:03;;;;;;;821.73;738.67;;;6.50;99.90;;;;;;4981861;28;20460;-84
2022/11/05 08:19:29;;;;;;;814.37;731.60;;;6.60;99.90;;;;;;4982477;28;20466;-84
2022/11/05 08:21:56;;;;;;;818.30;735.53;;;6.60;99.90;;;;;;4982105;28;20459;-85
2022/11/05 08:24:23;;;;;;;819.43;735.87;;;6.70;99.90;;;;;;4982432;28;20471;-85
2022/11/05 08:26:50;;;;;;;815.37;733.60;;;6.90;99.90;;;;;;4982950;28;20482;-84
2022/11/05 08:29:16;;;;;;;811.07;729.13;;;7.00;99.90;;;;;;4982651;28;20485;-84
2022/11/05 08:31:43;;;;;;;820.40;738.07;;;7.10;99.90;;;;;;4981969;28;20466;-84
2022/11/05 08:34:11;;;;;;;818.33;736.37;;;7.20;99.90;;;;;;4981384;28;20471;-84
2022/11/05 08:36:40;;;;;;;811.73;731.07;;;7.30;99.90;;;;;;4982000;28;20447;-84
2022/11/05 08:39:08;;;;;;;813.50;732.50;;;7.40;99.90;;;;;;4981993;28;20459;-85
2022/11/05 08:41:35;;;;;;;815.37;735.77;;;7.50;99.90;;;;;;4982532;28;20459;-84
2022/11/05 08:44:01;;;;;;;815.37;737.50;;;7.60;99.90;;;;;;4981280;28;21017;-84
2022/11/05 08:46:28;;;;;;;802.73;724.80;;;7.60;99.90;;;;;;4981868;28;20466;-84
2022/11/05 08:48:55;;;;;;;814.03;735.10;;;7.70;99.90;;;;;;4982933;28;20995;-85
2022/11/05 08:51:23;;;;;;;810.63;735.67;;;7.90;99.90;;;;;;4982010;28;20530;-85
2022/11/05 08:53:50;;;;;;;788.10;719.07;;;8.00;99.90;;;;;;4982272;28;20542;-84
2022/11/05 08:56:16;;;;;;;774.23;708.23;;;8.00;99.90;;;;;;4984272;28;20462;-85
2022/11/05 08:58:43;;;;;;;763.33;700.90;;;8.10;99.90;;;;;;4982756;28;20478;-85
2022/11/05 09:01:10;;;;;;;757.40;696.77;;;8.10;99.90;;;;;;4981870;28;20466;-85
2022/11/05 09:03:37;;;;;;;759.37;699.50;;;8.20;99.90;;;;;;4982166;28;20486;-85
2022/11/05 09:06:04;;;;;;;747.50;689.10;;;8.30;99.90;;;;;;4981282;28;20827;-84
2022/11/05 09:08:32;;;;;;;740.73;684.43;;;8.40;99.90;;;;;;4981871;28;20490;-85
2022/11/05 09:10:59;;;;;;;717.03;665.57;;;8.50;99.90;;;;;;4981994;28;20854;-85
2022/11/05 09:13:26;;;;;;;714.57;664.10;;;8.60;99.90;;;;;;4983156;28;20542;-84
2022/11/05 09:15:53;;;;;;;649.87;606.83;;;8.60;99.90;;;;;;4982050;28;20493;-84
2022/11/05 09:18:21;;;;;;;649.20;608.07;;;8.80;99.90;;;;;;4982941;28;20462;-85
2022/11/05 09:20:47;;;;;;;594.77;561.17;;;8.90;99.90;;;;;;4981639;28;20501;-85
2022/11/05 09:23:15;;;;;;;526.23;499.23;;;8.90;99.90;;;;;;4982564;28;20557;-85
2022/11/05 09:25:44;;;;;;;550.23;521.83;;;9.00;99.90;;;;;;4981951;28;20526;-85
2022/11/05 09:28:12;;;;;;;450.00;429.00;;;9.10;99.90;;;;;;4981917;28;20489;-83
2022/11/05 09:30:41;;;;;;;333.17;318.97;;;9.10;99.90;;;;;;4981225;28;20514;-85
2022/11/05 09:36:36;;;;;;;201.93;193.33;;;9.30;99.90;;;;;;4981766;28;20506;-85
2022/11/05 09:39:02;;;;;;;187.23;179.33;;;9.40;99.90;;;;;;4982201;28;20493;-85
2022/11/05 09:41:36;;;;;;;102.77;97.63;;;9.60;99.90;;;;;;4981938;28;20487;-85
2022/11/05 09:44:09;;;;;;;192.33;184.13;;;9.70;99.90;;;;;;4982627;28;20566;-86
2022/11/05 09:46:41;;;;;;;49.53;46.23;;;10.00;99.90;;;;;;4980793;28;20451;-86
2022/11/05 09:49:18;;;;;;;22.17;20.07;;;10.30;99.90;;;;;;4980288;28;20435;-86
2022/11/05 09:51:45;;;;;;;27.10;12.40;;;10.60;99.90;;;;;;4980219;28;20461;-85
2022/11/05 09:54:14;;;;;;;15.53;10.17;;;11.30;99.90;;;;;;4980721;28;20551;-85
2022/11/05 09:56:43;;;;;;;13.63;8.77;;;11.90;99.90;;;;;;4981398;28;20451;-86
2022/11/05 09:59:17;;;;;;;14.37;7.53;;;12.20;99.90;;;;;;4979949;28;20447;-85
2022/11/05 10:01:46;;;;;;;12.07;8.10;;;12.40;99.80;;;;;;4979184;28;20456;-86
2022/11/05 10:04:16;;;;;;;12.87;7.10;;;12.60;98.70;;;;;;4979755;28;20475;-83
2022/11/05 10:06:47;;;;;;;13.33;6.47;;;12.90;97.20;;;;;;4979562;28;20445;-86
2022/11/05 10:09:21;;;;;;;15.80;7.27;;;13.20;95.90;;;;;;4979063;28;21007;-86
2022/11/05 10:11:54;;;;;;;11.53;6.37;;;13.10;95.90;;;;;;4978705;28;20461;-86
2022/11/05 10:14:26;;;;;;;15.77;7.07;;;13.40;94.30;;;;;;4979254;28;20480;-86
2022/11/05 10:16:56;;;;;;;11.70;5.83;;;13.40;94.00;;;;;;4981199;28;20457;-85
2022/11/05 10:19:26;;;;;;;10.77;6.30;;;13.80;95.90;;;;;;4981120;28;20458;-86
2022/11/05 10:21:55;;;;;;;12.23;5.30;;;13.90;92.60;;;;;;4981322;28;20510;-86
2022/11/05 10:24:23;;;;;;;8.83;5.43;;;14.00;92.60;;;;;;4987382;28;20481;-85
2022/11/05 10:26:54;;;;;;;10.13;4.97;;;14.30;90.50;;;;;;4986398;28;20470;-86
2022/11/05 10:29:28;;;;;;;11.50;5.30;;;14.80;89.90;;;;;;4989130;28;20453;-87
2022/11/05 10:31:58;;;;;;;9.90;5.60;;;15.10;88.70;;;;;;4986252;28;20457;-86
2022/11/05 10:34:28;;;;;;;9.97;4.63;;;15.10;86.10;;;;;;4983402;28;20535;-86
2022/11/05 10:36:55;;;;;;;18.47;5.20;;;15.00;84.40;;;;;;4982386;28;20826;-87
2022/11/05 10:39:26;;;;;;;7.37;3.73;;;15.10;83.40;;;;;;4982350;28;20533;-86
2022/11/05 10:42:09;;;;;;;11.40;5.43;;;15.20;81.70;;;;;;4982966;28;20441;-87
2022/11/05 10:44:41;;;;;;;9.30;4.90;;;15.00;81.50;;;;;;4985770;23;20510;-85
2022/11/05 10:47:31;;;;;;;10.40;4.63;;;14.90;81.50;;;;;;4953968;29;20485;-84
2022/11/05 10:49:59;;;;;;;7.70;4.00;;;15.00;80.60;;;;;;4953952;29;20453;-85
2022/11/05 10:52:31;;;;;;;9.93;4.40;;;14.80;80.70;;;;;;4953606;29;20469;-85
2022/11/05 10:55:01;;;;;;;8.80;4.77;;;14.60;81.10;;;;;;4955017;28;20476;-84
2022/11/05 10:57:32;;;;;;;8.10;4.23;;;14.50;81.10;;;;;;4954003;29;20463;-84
2022/11/05 11:00:28;;;;;;;11.43;4.50;;;14.30;81.80;;;;;;4953779;29;20462;-84
2022/11/05 11:02:57;;;;;;;10.03;4.30;;;13.70;83.60;;;;;;4953799;29;20844;-84
2022/11/05 11:05:27;;;;;;;19.30;6.40;;;13.20;86.40;;;;;;4954969;28;20473;-84
2022/11/05 11:08:01;;;;;;;10.83;5.30;;;12.90;87.30;;;;;;4953702;29;20582;-84
2022/11/05 11:10:30;;;;;;;13.87;6.27;;;12.50;89.50;;;;;;4953465;29;20464;-84
2022/11/05 11:12:58;;;;;;;12.27;5.23;;;12.30;90.40;;;;;;4953070;29;20459;-84
2022/11/05 11:15:28;;;;;;;11.67;5.50;;;12.10;90.90;;;;;;4954050;28;20480;-85
2022/11/05 11:17:56;;;;;;;11.43;5.10;;;11.90;91.60;;;;;;4955603;29;20459;-84
2022/11/05 11:20:25;;;;;;;11.60;5.90;;;11.90;91.70;;;;;;4953412;29;20456;-83
2022/11/05 11:23:00;;;;;;;11.70;5.40;;;11.80;91.70;;;;;;4953643;29;20460;-83
2022/11/05 11:25:29;;;;;;;11.07;5.60;;;11.80;92.10;;;;;;4956666;28;20475;-84
2022/11/05 11:28:01;;;;;;;11.03;5.40;;;11.90;93.00;;;;;;4957398;29;20483;-85
2022/11/05 11:30:37;;;;;;;13.43;5.30;;;12.20;91.90;;;;;;4960498;28;20942;-85
2022/11/05 11:33:11;;;;;;;22.93;5.50;;;12.30;91.90;;;;;;4961079;29;20459;-85
2022/11/05 11:35:45;;;;;;;8.93;4.30;;;12.40;91.20;;;;;;4961804;28;20479;-84
2022/11/05 11:38:23;;;;;;;12.77;4.60;;;12.40;90.90;;;;;;4962306;29;20818;-84
2022/11/05 11:40:50;;;;;;;11.37;5.30;;;12.50;90.90;;;;;;4957651;29;20879;-84
2022/11/05 11:43:28;;;;;;;12.93;5.37;;;12.60;91.10;;;;;;4956510;29;20969;-84
2022/11/05 11:45:56;;;;;;;10.70;4.60;;;12.50;90.70;;;;;;4956518;29;20623;-84
2022/11/05 11:48:28;;;;;;;12.30;3.93;;;12.50;90.90;;;;;;4956546;29;20484;-84
2022/11/05 11:50:56;;;;;;;10.70;5.50;;;12.50;91.40;;;;;;4957373;29;20457;-84
2022/11/05 11:53:29;;;;;;;13.50;3.40;;;12.60;91.50;;;;;;4956800;29;20444;-84
2022/11/05 11:56:05;;;;;;;13.07;5.20;;;12.50;90.10;;;;;;4958023;29;20462;-85
2022/11/05 11:58:43;;;;;;;9.00;4.30;;;12.30;89.50;;;;;;4957252;29;20459;-84
2022/11/05 12:01:48;;;;;;;9.90;4.30;;;12.10;89.60;;;;;;4956010;29;20462;-84
2022/11/05 12:04:39;;;;;;;10.23;4.27;;;12.20;89.90;;;;;;4956198;28;20475;-84
2022/11/05 12:07:19;;;;;;;8.23;4.20;;;12.20;90.10;;;;;;4955960;29;20977;-85
2022/11/05 12:10:00;;;;;;;7.73;3.77;;;12.20;91.00;;;;;;4956043;29;20954;-84
2022/11/05 12:12:35;;;;;;;14.67;4.20;;;12.30;91.10;;;;;;4955656;29;20470;-84
2022/11/05 12:15:24;;;;;;;8.97;4.57;;;12.10;89.30;;;;;;4956296;28;20472;-84
2022/11/05 12:17:55;;;;;;;7.70;3.53;;;12.10;90.20;;;;;;4957296;29;20467;-84
2022/11/05 12:20:37;;;;;;;13.23;4.60;;;12.10;90.10;;;;;;4956246;29;20466;-84
2022/11/05 12:23:20;;;;;;;7.40;3.80;;;12.10;90.10;;;;;;4955958;29;20460;-84
2022/11/05 12:25:53;;;;;;;10.40;5.20;;;12.10;90.90;;;;;;4957347;28;20483;-84
2022/11/05 12:28:34;;;;;;;10.43;4.80;;;12.30;91.20;;;;;;4955768;29;20483;-84
2022/11/05 12:31:14;;;;;;;10.13;4.57;;;12.60;90.70;;;;;;4955849;29;20467;-84
2022/11/05 12:33:51;;;;;;;13.30;4.63;;;12.60;90.00;;;;;;4955835;28;20452;-84
2022/11/05 12:36:31;;;;;;;9.27;4.67;;;12.80;90.10;;;;;;4955626;29;20475;-84
2022/11/05 12:39:13;;;;;;;7.73;4.00;;;12.80;86.70;;;;;;4955794;29;20451;-84
2022/11/05 12:41:50;;;;;;;9.50;4.60;;;12.90;87.30;;;;;;4954850;28;20464;-84
2022/11/05 12:44:28;;;;;;;9.83;5.50;;;12.90;87.30;;;;;;4955616;28;20483;-84
2022/11/05 12:47:08;;;;;;;10.97;4.93;;;12.90;87.30;;;;;;4955455;29;20467;-84
2022/11/05 12:49:47;;;;;;;15.10;5.00;;;13.10;87.50;;;;;;4955442;29;20490;-84
2022/11/05 12:52:48;;;;;;;11.20;5.57;;;13.20;87.80;;;;;;4955134;29;20962;-84
2022/11/05 12:55:18;;;;;;;13.73;5.37;;;13.20;87.90;;;;;;4956201;28;20494;-84
2022/11/05 12:57:49;;;;;;;16.63;5.97;;;13.20;85.30;;;;;;4956233;29;20573;-84
2022/11/05 13:00:19;;;;;;;9.43;4.60;;;13.30;85.10;;;;;;4955480;29;20493;-84
2022/11/05 13:02:52;;;;;;;11.33;5.60;;;13.30;85.60;;;;;;4956539;29;20456;-84
2022/11/05 13:05:24;;;;;;;14.00;4.57;;;13.30;84.00;;;;;;4955024;28;20484;-84
2022/11/05 13:07:57;;;;;;;8.43;3.60;;;13.30;84.80;;;;;;4955173;29;20472;-84
2022/11/05 13:10:32;;;;;;;9.40;3.60;;;13.10;83.10;;;;;;4954902;29;20478;-84
2022/11/05 13:13:06;;;;;;;10.00;3.77;;;13.20;82.50;;;;;;4954548;29;20950;-84
2022/11/05 13:15:38;;;;;;;9.50;3.87;;;13.10;81.30;;;;;;4954909;28;20474;-84
2022/11/05 13:18:11;;;;;;;7.30;2.97;;;13.20;82.80;;;;;;4955090;29;20451;-84
2022/11/05 13:20:42;;;;;;;7.40;3.10;;;13.20;83.00;;;;;;4954859;29;20456;-84
2022/11/05 13:23:16;;;;;;;8.47;3.07;;;13.30;83.50;;;;;;4954850;29;20463;-84